LDSPLDZA

Guest
Details From LDSP - Split
To LDZA - Zagreb
Flight Number -
Tags Generated
Created
Modified
Stats Distance 132 nm / 245 km
Max Altitude 0 ft / 0 m
Waypoints 2
Social Downloads 1
Likes 0
Share VATSIM

Download

Looking for another format? Having issues loading an existing format? Contact us
Advertisement - Login to hide

Notes

Generated

Route

LDSP LDZA

ID Type Via Altitude Latitude Longitude Leg Dist Tot Dist Heading (true) Name
O LDSP APT - 0 ft / 0 m 43.53205˚ 16.28558˚ - 0 nm - -
O LDZA APT - 0 ft / 0 m 45.73188˚ 16.05197˚ 132 nm 132 nm 356° / 356° -

Altitude Profile

Advertisement - Login to hide

LDSP

Details ICAO LDSP (SPU)
Name SPLIT
Region Croatia
Timezone Europe/Zagreb (UTC+2.0)
Stats Elevation 79 ft / 24 m (AMSL)
Location 43.539026° 16.298112°
Runways 1
Magnetic Variation 3.884° E

METAR

LDSP 240100Z AUTO 04004KT 360V070 CAVOK 18/14 Q1014

Decode

TAF

TAF LDSP 232325Z 2400/2500 34007KT 9999 SCT050 TX27/2412Z TN16/2404Z BECMG 2409/2411 23008KT PROB30 TEMPO 2412/2417 33012KT -TSRA FEW035CB SCT040 BECMG 2417/2419 33006KT

Decode

Departure Runways

ID Width Length Bearing (true) Bearing (mag) Surface Threshold Offset Overrun Length
05 148 ft / 45 m 8,357 ft / 2,547 m 52.48° 48.60° Asphalt 0 ft / 0 m 76 ft / 23 m
23 148 ft / 45 m 8,357 ft / 2,547 m 232.50° 228.62° Asphalt 525 ft / 160 m 820 ft / 250 m

LDZA

Details ICAO LDZA (ZAG)
Name Zagreb
Region Croatia
Timezone Europe/Zagreb (UTC+2.0)
Stats Elevation 353 ft / 108 m (AMSL)
Location 45.741890° 16.067200°
Runways 1
Magnetic Variation 4.008° E

METAR

LDZA 240100Z 01003KT 340V040 9999 -RA NSC 17/15 Q1017 TEMPO SHRA FEW035TCU SCT040

Decode

TAF

TAF LDZA 232325Z 2400/2500 VRB02KT 9999 FEW040 TX25/2413Z TN15/2404Z PROB30 TEMPO 2400/2402 TSRA FEW030CB SCT035 PROB30 TEMPO 2402/2406 1500 BCFG PROB30 TEMPO 2402/2411 SHRA FEW030TCU BKN035 PROB40 TEMPO 2411/2417 VRB15G25KT 4000 TSRA SCT025CB SCT035 PROB30 TEMPO 2420/2500 TSRA FEW040CB

Decode

Destination Runways

ID Width Length Bearing (true) Bearing (mag) Surface Threshold Offset Overrun Length
05 148 ft / 45 m 10,659 ft / 3,249 m 46.69° 42.68° Asphalt 0 ft / 0 m 195 ft / 59 m
23 148 ft / 45 m 10,659 ft / 3,249 m 226.71° 222.70° Asphalt 0 ft / 0 m 195 ft / 59 m

Approach Navaids

Runway Type Ident Frequency Range Bearing (true) Bearing (mag) Slope Elevation
05 Localiser IZA 109.50 MHz 25 nm / 46 km 46.79° 42.78° - 335 ft / 102 m (AMSL)
05 Glidescope IZA 109.50 MHz 25 nm / 46 km 46.79° 42.78° 3.00° 344 ft / 105 m (AMSL)
05 DME IZA 109.50 MHz 25 nm / 46 km - - - 372 ft / 113 m (AMSL)
23 Localiser IZG 109.10 MHz 25 nm / 46 km 226.81° 222.80° - 344 ft / 105 m (AMSL)
23 Glidescope IZG 109.10 MHz 25 nm / 46 km 226.81° 222.80° 3.00° 344 ft / 105 m (AMSL)

Popular Alternatives